Newport News Williamsburg International Airport
KPHF : now visible

Airfield :











YOU CAN JOIN US ON...

 
LOGIN :

Register | Disclaimer

   EN    FR    IT 

 









Legend :    VFR   Marginal VFR   IFR   Intensive IFR   Very Intensive IFR
Visi :
Ceiling :
>= 8 km
>= 3000ft
5 to 8 km
1000 to 3000 ft
1500m to 5 km
500 to 1000 ft
800 to 1500m
200 to 500 ft
< 800m
< 200 ft
Symbols :   Thunderstorms  Fog  Heavy snow  Heavy precipitations  Wind > 20 kt






- Airport Elevation : 42 ft
- IATA code : PHF


KPHF - Newport News Williamsburg International

CURRENT METAR :
  • 161354Z 12006KT 10SM BKN038 09/04 A3024 RMK AO2 SLP241 T00940044

EXPIRED METARs :
  • 161254Z 06004KT 10SM CLR 06/02 A3024 RMK AO2 SLP240 T00610022
  • 161154Z 05004KT 10SM CLR 04/01 A3023 RMK AO2 SLP236 T00440006 10067 20039 53003

TAF KPHF
Valid from the 16 at 12:00 until the 17 at 12:00 UTC


161120Z 1612/1712 09005KT P6SM SCT250
FM161400 14005KT P6SM BKN150
FM170000 06005KT P6SM BKN250
FM170600 18005KT P6SM BKN030



MET'MAP, your aeronautical weather chart ! - Copyright ORBIFLY December 2007 - Disclaimer

ORBIFLY MET'MAP TEAM :

Programming & Development : Alexandra Zaïnal
Concept & original design : Baudouin d'Aumeries
Assistance for programming : Marc-Olivier Méhu
Technical & hardware support : Manuel Goepfert

Contact : metmap@orbifly.com




SOURCES & CREDITS :

   NOAA       Earth
Advisory